createdAt,value
2023-02-11T00:02:42.228Z,99955.22
2023-02-11T00:05:48.245Z,99948.25
2023-02-11T00:08:55.228Z,99938.22
2023-02-11T00:12:03.795Z,99941.00
2023-02-11T00:15:13.130Z,99934.75
2023-02-11T00:18:19.618Z,99935.59
2023-02-11T00:21:28.955Z,99939.47
2023-02-11T00:24:34.934Z,99947.94
2023-02-11T00:27:44.363Z,99937.91
2023-02-11T00:30:58.321Z,99943.00
2023-02-11T00:34:05.010Z,99937.19
2023-02-11T00:37:12.230Z,99917.66
2023-02-11T00:40:21.926Z,99917.50
2023-02-11T00:43:30.695Z,99918.34
2023-02-11T00:46:37.997Z,99908.97
2023-02-11T00:49:43.903Z,99914.31
2023-02-11T00:52:50.725Z,99914.16
2023-02-11T00:55:56.770Z,99894.69
2023-02-11T00:59:08.242Z,99881.34
2023-02-11T01:02:14.063Z,99872.63
2023-02-11T01:05:23.904Z,99870.88
2023-02-11T01:08:30.129Z,99850.22
2023-02-11T01:11:36.915Z,99841.97
2023-02-11T01:14:46.347Z,99826.22
2023-02-11T01:17:53.238Z,99827.63
2023-02-11T01:20:59.173Z,99820.09
2023-02-11T01:24:05.807Z,99810.22
2023-02-11T01:27:11.794Z,99799.50
2023-02-11T01:30:23.206Z,99820.78
2023-02-11T01:33:29.106Z,99821.31
2023-02-11T01:36:35.760Z,99826.22
2023-02-11T01:39:41.658Z,99826.88
2023-02-11T01:42:50.919Z,99817.00
2023-02-11T01:46:11.215Z,99803.53
2023-02-11T01:49:24.512Z,99806.16
2023-02-11T01:52:37.916Z,99812.03
2023-02-11T01:55:57.141Z,99815.34
2023-02-11T01:59:14.744Z,99796.63
2023-02-11T02:02:32.801Z,99816.63
2023-02-11T02:05:52.183Z,99804.50
2023-02-11T02:09:08.902Z,99797.75
2023-02-11T02:12:14.961Z,99803.84
2023-02-11T02:15:27.502Z,99794.81
2023-02-11T02:18:51.728Z,99784.31
2023-02-11T02:23:05.308Z,99783.03
2023-02-11T02:26:49.792Z,99773.72
2023-02-11T02:30:36.879Z,99745.81
2023-02-11T02:33:58.542Z,99732.47
2023-02-11T02:37:18.222Z,99718.13
2023-02-11T02:40:34.442Z,99715.53
2023-02-11T02:43:47.703Z,99710.72
2023-02-11T02:46:53.515Z,99712.06
2023-02-11T02:50:03.588Z,99705.47
2023-02-11T02:53:35.243Z,99689.41
2023-02-11T02:56:54.337Z,99670.88
2023-02-11T03:00:20.845Z,99674.56
2023-02-11T03:03:45.244Z,99665.44
2023-02-11T03:07:06.881Z,99660.84
2023-02-11T03:10:24.520Z,99666.66
2023-02-11T03:13:37.444Z,99663.75
2023-02-11T03:16:46.701Z,99677.44
2023-02-11T03:19:55.107Z,99676.75
2023-02-11T03:23:13.952Z,99680.88
2023-02-11T03:26:28.949Z,99680.88
2023-02-11T03:29:46.691Z,99694.03
2023-02-11T03:33:00.983Z,99670.31
2023-02-11T03:36:16.064Z,99676.16
2023-02-11T03:39:32.567Z,99666.72
2023-02-11T03:42:46.889Z,99658.28
2023-02-11T03:45:58.764Z,99656.91
2023-02-11T03:49:12.648Z,99646.19
2023-02-11T03:52:23.062Z,99631.13
2023-02-11T03:55:39.031Z,99626.78
2023-02-11T03:58:47.073Z,99605.34
2023-02-11T04:01:54.268Z,99603.59
2023-02-11T04:05:00.543Z,99585.19
2023-02-11T04:08:08.765Z,99579.41
2023-02-11T04:11:17.182Z,99572.41
2023-02-11T04:14:26.921Z,99563.56
2023-02-11T04:17:32.946Z,99559.81
2023-02-11T04:20:39.592Z,99558.88
2023-02-11T04:23:45.386Z,99544.84
2023-02-11T04:26:54.820Z,99550.66
2023-02-11T04:30:00.617Z,99547.25
2023-02-11T04:33:07.414Z,99543.03
2023-02-11T04:36:13.255Z,99533.97
2023-02-11T04:39:20.415Z,99543.47
2023-02-11T04:42:28.925Z,99560.66
2023-02-11T04:45:36.323Z,99561.78
2023-02-11T04:48:42.195Z,99557.47
2023-02-11T04:51:49.655Z,99566.72
2023-02-11T04:54:55.522Z,99565.66
2023-02-11T04:58:04.780Z,99559.97
2023-02-11T05:01:11.288Z,99552.91
2023-02-11T05:04:17.949Z,99535.28
2023-02-11T05:07:23.766Z,99530.19
2023-02-11T05:10:30.316Z,99556.13
2023-02-11T05:13:38.775Z,99547.13
2023-02-11T05:16:45.506Z,99556.94
2023-02-11T05:19:51.245Z,99537.78
2023-02-11T05:22:57.799Z,99532.97
2023-02-11T05:26:03.772Z,99522.63
2023-02-11T05:29:12.952Z,99523.88
2023-02-11T05:32:18.809Z,99524.31
2023-02-11T05:35:26.368Z,99524.25
2023-02-11T05:38:32.521Z,99533.22
2023-02-11T05:41:39.162Z,99539.72
2023-02-11T05:44:50.257Z,99547.91
2023-02-11T05:47:57.240Z,99546.63
2023-02-11T05:51:02.971Z,99541.59
2023-02-11T05:54:09.822Z,99546.69
2023-02-11T05:57:15.868Z,99544.53
2023-02-11T06:00:25.719Z,99534.34
2023-02-11T06:03:31.555Z,99502.66
2023-02-11T06:06:38.414Z,99498.47
2023-02-11T06:09:44.369Z,99502.22
2023-02-11T06:12:51.057Z,99503.19
2023-02-11T06:16:06.046Z,99504.06
2023-02-11T06:19:12.716Z,99500.84
2023-02-11T06:22:18.736Z,99508.94
2023-02-11T06:25:25.357Z,99509.13
2023-02-11T06:28:32.281Z,99510.75
2023-02-11T06:31:42.119Z,99499.47
2023-02-11T06:34:48.203Z,99506.00
2023-02-11T06:37:54.884Z,99506.56
2023-02-11T06:41:00.711Z,99491.97
2023-02-11T06:44:07.546Z,99493.06
2023-02-11T06:47:16.840Z,99492.31
2023-02-11T06:50:23.730Z,99493.81
2023-02-11T06:53:29.550Z,99503.84
2023-02-11T06:56:37.558Z,99506.41
2023-02-11T06:59:43.971Z,99508.41
2023-02-11T07:02:53.216Z,99503.56
2023-02-11T07:05:58.983Z,99501.78
2023-02-11T07:09:05.629Z,99489.88
2023-02-11T07:12:13.476Z,99494.88
2023-02-11T07:15:20.369Z,99489.31
2023-02-11T07:18:28.690Z,99486.34
2023-02-11T07:21:35.295Z,99483.69
2023-02-11T07:24:41.036Z,99487.03
2023-02-11T07:27:50.287Z,99483.25
2023-02-11T07:30:56.028Z,99478.41
2023-02-11T07:34:07.032Z,99483.69
2023-02-11T07:37:12.910Z,99488.44
2023-02-11T07:40:19.870Z,99478.28
2023-02-11T07:43:25.680Z,99472.06
2023-02-11T07:46:32.548Z,99473.28
2023-02-11T07:49:41.103Z,99470.22
2023-02-11T07:52:47.710Z,99469.94
2023-02-11T07:55:53.648Z,99456.84
2023-02-11T07:59:05.166Z,99447.00
2023-02-11T08:02:12.743Z,99448.84
2023-02-11T08:05:22.134Z,99450.81
2023-02-11T08:08:30.413Z,99450.34
2023-02-11T08:11:39.343Z,99458.50
2023-02-11T08:14:45.100Z,99434.91
2023-02-11T08:17:51.616Z,99444.53
2023-02-11T08:21:08.273Z,99437.38
2023-02-11T08:24:15.575Z,99449.97
2023-02-11T08:27:21.455Z,99455.72
2023-02-11T08:30:28.243Z,99466.19
2023-02-11T08:33:34.120Z,99453.44
2023-02-11T08:36:45.777Z,99464.06
2023-02-11T08:39:51.731Z,99463.16
2023-02-11T08:42:59.592Z,99454.81
2023-02-11T08:46:06.837Z,99441.53
2023-02-11T08:49:14.624Z,99443.41
2023-02-11T08:52:23.077Z,99446.47
2023-02-11T08:55:29.854Z,99447.50
2023-02-11T08:58:38.030Z,99445.16
2023-02-11T09:01:44.958Z,99453.03
2023-02-11T09:04:53.516Z,99460.91
2023-02-11T09:08:06.042Z,99438.47
2023-02-11T09:11:13.357Z,99445.91
2023-02-11T09:14:27.187Z,99464.41
2023-02-11T09:17:33.076Z,99461.09
2023-02-11T09:20:39.936Z,99458.72
2023-02-11T09:23:48.662Z,99472.94
2023-02-11T09:26:55.438Z,99477.38
2023-02-11T09:30:01.318Z,99480.47
2023-02-11T09:33:08.100Z,99478.41
2023-02-11T09:36:13.892Z,99479.91
2023-02-11T09:39:23.517Z,99483.59
2023-02-11T09:42:49.918Z,99498.63
2023-02-11T09:45:59.800Z,99492.03
2023-02-11T09:49:09.387Z,99498.88
2023-02-11T09:52:38.761Z,99486.19
2023-02-11T09:55:55.937Z,99476.41
2023-02-11T09:59:05.257Z,99465.94
2023-02-11T10:02:26.919Z,99483.25
2023-02-11T10:06:06.715Z,99467.56
2023-02-11T10:09:48.526Z,99467.97
2023-02-11T10:13:27.748Z,99457.41
2023-02-11T10:16:54.404Z,99449.31
2023-02-11T10:20:24.908Z,99444.75
2023-02-11T10:23:42.989Z,99427.31
2023-02-11T10:26:50.218Z,99427.31
2023-02-11T10:30:07.144Z,99424.09
2023-02-11T10:33:29.799Z,99406.94
2023-02-11T10:36:40.285Z,99404.53
2023-02-11T10:39:47.173Z,99375.63
2023-02-11T10:42:56.187Z,99363.50
2023-02-11T10:46:09.176Z,99352.03
2023-02-11T10:49:40.826Z,99318.25
2023-02-11T10:52:47.367Z,99309.28
2023-02-11T10:55:58.176Z,99293.25
2023-02-11T10:59:10.552Z,99282.81
2023-02-11T11:02:42.074Z,99269.31
2023-02-11T11:05:58.726Z,99272.13
2023-02-11T11:09:33.053Z,99298.78
2023-02-11T11:12:51.644Z,99313.50
2023-02-11T11:16:25.029Z,99319.00
2023-02-11T11:19:36.873Z,99315.72
2023-02-11T11:22:45.716Z,99311.41
2023-02-11T11:26:08.420Z,99309.31
2023-02-11T11:29:23.497Z,99299.97
2023-02-11T11:32:37.290Z,99312.47
2023-02-11T11:36:04.237Z,99304.47
2023-02-11T11:39:26.414Z,99304.03
2023-02-11T11:42:35.094Z,99310.41
2023-02-11T11:45:42.790Z,99305.22
2023-02-11T11:48:54.752Z,99299.19
2023-02-11T11:52:30.628Z,99299.34
2023-02-11T11:55:46.801Z,99307.22
2023-02-11T11:58:54.574Z,99314.59
2023-02-11T12:03:20.612Z,99302.66
2023-02-11T12:06:59.575Z,99318.44
2023-02-11T12:10:47.208Z,99318.63
2023-02-11T12:14:18.916Z,99327.25
2023-02-11T12:17:51.931Z,99326.78
2023-02-11T12:21:29.580Z,99336.53
2023-02-11T12:25:07.876Z,99337.38
2023-02-11T12:28:40.282Z,99323.84
2023-02-11T12:32:08.286Z,99326.78
2023-02-11T12:35:43.586Z,99334.66
2023-02-11T12:39:17.621Z,99332.44
2023-02-11T12:43:19.989Z,99335.06
2023-02-11T12:46:45.188Z,99321.44
2023-02-11T12:50:14.228Z,99298.69
2023-02-11T12:54:07.467Z,99293.34
2023-02-11T12:57:26.160Z,99279.53
2023-02-11T13:00:48.942Z,99237.38
2023-02-11T13:04:12.055Z,99235.09
2023-02-11T13:07:27.026Z,99244.56
2023-02-11T13:10:41.150Z,99247.78
2023-02-11T13:13:58.940Z,99263.28
2023-02-11T13:17:20.921Z,99266.06
2023-02-11T13:20:45.744Z,99247.84
2023-02-11T13:24:07.571Z,99242.66
2023-02-11T13:27:32.460Z,99240.09
2023-02-11T13:30:47.713Z,99247.78
2023-02-11T13:33:53.828Z,99252.25
2023-02-11T13:37:03.241Z,99240.41
2023-02-11T13:40:25.881Z,99217.97
2023-02-11T13:43:37.392Z,99167.13
2023-02-11T13:47:02.280Z,99161.03
2023-02-11T13:50:24.925Z,99168.09
2023-02-11T13:53:53.415Z,99167.59
2023-02-11T13:57:42.819Z,99172.38
2023-02-11T14:00:53.005Z,99167.38
2023-02-11T14:04:39.453Z,99183.59
2023-02-11T14:08:30.186Z,99206.34
2023-02-11T14:11:58.384Z,99215.91
2023-02-11T14:15:41.548Z,99199.16
2023-02-11T14:19:06.469Z,99202.19
2023-02-11T14:22:23.862Z,99210.69
2023-02-11T14:25:32.277Z,99226.59
2023-02-11T14:28:47.067Z,99233.56
2023-02-11T14:32:11.015Z,99251.34
2023-02-11T14:35:35.416Z,99243.13
2023-02-11T14:39:15.332Z,99201.66
2023-02-11T14:42:31.243Z,99252.16
2023-02-11T14:45:51.451Z,99184.75
2023-02-11T14:49:04.997Z,99241.44
2023-02-11T14:52:30.529Z,99252.06
2023-02-11T14:55:43.063Z,99237.50
2023-02-11T14:58:52.253Z,99244.03
2023-02-11T15:02:01.286Z,99249.16
2023-02-11T15:05:21.364Z,99243.72
2023-02-11T15:08:27.898Z,99246.56
2023-02-11T15:11:41.652Z,99249.44
2023-02-11T15:14:55.396Z,99249.25
2023-02-11T15:18:09.913Z,99253.78
2023-02-11T15:21:16.553Z,99262.00
2023-02-11T15:24:31.292Z,99261.50
2023-02-11T15:27:44.398Z,99261.41
2023-02-11T15:30:59.843Z,99271.66
2023-02-11T15:34:14.979Z,99270.00
2023-02-11T15:37:26.997Z,99275.28
2023-02-11T15:40:36.214Z,99283.41
2023-02-11T15:43:49.356Z,99286.84
2023-02-11T15:46:55.533Z,99283.13
2023-02-11T15:50:06.089Z,99284.13
2023-02-11T15:53:28.870Z,99289.75
2023-02-11T15:56:45.380Z,99278.94
2023-02-11T15:59:56.949Z,99296.56
2023-02-11T16:03:03.610Z,99302.69
2023-02-11T16:06:25.145Z,99310.66
2023-02-11T16:09:40.080Z,99313.31
2023-02-11T16:13:14.193Z,99316.28
2023-02-11T16:16:27.285Z,99311.38
2023-02-11T16:19:36.315Z,99313.13
2023-02-11T16:22:50.511Z,99313.13
2023-02-11T16:26:05.721Z,99309.28
2023-02-11T16:29:20.331Z,99312.34
2023-02-11T16:32:28.919Z,99304.56
2023-02-11T16:35:35.916Z,99302.38
2023-02-11T16:38:44.449Z,99311.16
2023-02-11T16:41:52.767Z,99312.56
2023-02-11T16:45:00.223Z,99310.91
2023-02-11T16:48:10.691Z,99320.91
2023-02-11T16:51:16.808Z,99332.09
2023-02-11T16:54:27.074Z,99319.88
2023-02-11T16:57:33.965Z,99330.91
2023-02-11T17:00:41.260Z,99323.19
2023-02-11T17:03:47.266Z,99329.13
2023-02-11T17:06:55.933Z,99324.13
2023-02-11T17:10:05.928Z,99332.38
2023-02-11T17:13:12.489Z,99331.91
2023-02-11T17:16:26.557Z,99334.28
2023-02-11T17:19:33.664Z,99331.38
2023-02-11T17:22:39.743Z,99337.31
2023-02-11T17:25:49.441Z,99342.03
2023-02-11T17:28:56.306Z,99339.00
2023-02-11T17:32:03.246Z,99339.63
2023-02-11T17:35:10.700Z,99343.63
2023-02-11T17:38:17.507Z,99337.19
2023-02-11T17:41:26.073Z,99340.97
2023-02-11T17:44:32.575Z,99343.44
2023-02-11T17:47:38.928Z,99341.78
2023-02-11T17:50:45.765Z,99340.31
2023-02-11T17:53:51.893Z,99342.81
2023-02-11T17:57:01.297Z,99333.56
2023-02-11T18:00:09.013Z,99335.44
2023-02-11T18:03:21.621Z,99340.41
2023-02-11T18:06:29.949Z,99353.28
2023-02-11T18:09:40.976Z,99335.56
2023-02-11T18:12:49.643Z,99346.69
2023-02-11T18:15:56.407Z,99337.97
2023-02-11T18:19:02.567Z,99340.16
2023-02-11T18:22:10.033Z,99350.06
2023-02-11T18:25:19.093Z,99345.41
2023-02-11T18:28:28.429Z,99329.09
2023-02-11T18:31:35.521Z,99344.41
2023-02-11T18:34:43.481Z,99350.31
2023-02-11T18:37:49.934Z,99354.56
2023-02-11T18:41:00.327Z,99354.81
2023-02-11T18:44:08.963Z,99352.25
2023-02-11T18:47:15.757Z,99355.75
2023-02-11T18:50:24.750Z,99349.09
2023-02-11T18:53:31.563Z,99356.91
2023-02-11T18:56:46.977Z,99362.13
2023-02-11T18:59:59.163Z,99356.94
2023-02-11T19:03:06.166Z,99374.91
2023-02-11T19:06:20.316Z,99364.31
2023-02-11T19:09:28.396Z,99366.41
2023-02-11T19:12:35.838Z,99379.28
2023-02-11T19:15:48.729Z,99371.59
2023-02-11T19:18:55.494Z,99375.66
2023-02-11T19:22:09.185Z,99371.38
2023-02-11T19:25:17.417Z,99378.75
2023-02-11T19:28:26.328Z,99386.03
2023-02-11T19:31:36.649Z,99391.16
2023-02-11T19:34:44.105Z,99388.44
2023-02-11T19:37:50.802Z,99385.44
2023-02-11T19:40:59.816Z,99387.16
2023-02-11T19:44:08.619Z,99395.69
2023-02-11T19:47:18.241Z,99383.16
2023-02-11T19:50:25.317Z,99383.34
2023-02-11T19:53:31.393Z,99382.31
2023-02-11T19:56:40.396Z,99390.53
2023-02-11T19:59:46.334Z,99381.69
2023-02-11T20:02:55.953Z,99390.84
2023-02-11T20:06:02.025Z,99388.00
2023-02-11T20:09:12.353Z,99380.34
2023-02-11T20:12:25.755Z,99379.47
2023-02-11T20:15:32.443Z,99386.44
2023-02-11T20:18:41.501Z,99384.06
2023-02-11T20:21:56.231Z,99389.56
2023-02-11T20:25:02.195Z,99393.59
2023-02-11T20:28:08.801Z,99395.03
2023-02-11T20:31:17.326Z,99392.97
2023-02-11T20:34:26.869Z,99406.69
2023-02-11T20:37:33.164Z,99410.31
2023-02-11T20:40:39.965Z,99410.31
2023-02-11T20:43:49.673Z,99411.78
2023-02-11T20:46:57.384Z,99416.16
2023-02-11T20:50:05.981Z,99412.00
2023-02-11T20:53:15.623Z,99417.94
2023-02-11T20:56:26.242Z,99414.19
2023-02-11T20:59:33.470Z,99417.94
2023-02-11T21:02:39.540Z,99415.53
2023-02-11T21:05:51.833Z,99415.75
2023-02-11T21:09:00.771Z,99428.44
2023-02-11T21:12:08.945Z,99425.13
2023-02-11T21:15:16.997Z,99424.63
2023-02-11T21:18:23.904Z,99426.19
2023-02-11T21:21:33.526Z,99431.38
2023-02-11T21:24:40.242Z,99434.47
2023-02-11T21:27:46.263Z,99432.81
2023-02-11T21:30:54.773Z,99436.59
2023-02-11T21:34:02.361Z,99433.16
2023-02-11T21:37:11.929Z,99442.72
2023-02-11T21:40:17.779Z,99442.00
2023-02-11T21:43:25.788Z,99453.34
2023-02-11T21:46:32.459Z,99460.75
2023-02-11T21:49:42.298Z,99466.06
2023-02-11T21:52:51.142Z,99468.88
2023-02-11T21:56:07.300Z,99479.81
2023-02-11T21:59:17.988Z,99472.00
2023-02-11T22:02:24.539Z,99466.88
2023-02-11T22:05:30.736Z,99476.06
2023-02-11T22:08:40.808Z,99479.88
2023-02-11T22:11:46.937Z,99475.94
2023-02-11T22:14:55.757Z,99484.13
2023-02-11T22:18:01.557Z,99494.53
2023-02-11T22:21:12.836Z,99504.97
2023-02-11T22:24:21.353Z,99498.59
2023-02-11T22:27:29.230Z,99504.22
2023-02-11T22:30:35.145Z,99497.44
2023-02-11T22:33:41.997Z,99509.22
2023-02-11T22:36:49.592Z,99517.53
2023-02-11T22:39:59.137Z,99515.75
2023-02-11T22:43:05.061Z,99513.50
2023-02-11T22:46:12.630Z,99521.78
2023-02-11T22:49:21.246Z,99537.41
2023-02-11T22:52:28.527Z,99532.31
2023-02-11T22:55:41.253Z,99537.00
2023-02-11T22:58:48.029Z,99539.28
2023-02-11T23:01:55.947Z,99538.00
2023-02-11T23:05:03.768Z,99548.22
2023-02-11T23:08:10.761Z,99550.72
2023-02-11T23:11:23.985Z,99542.91
2023-02-11T23:14:30.136Z,99552.19
2023-02-11T23:17:37.075Z,99543.50
2023-02-11T23:20:46.687Z,99544.38
2023-02-11T23:24:01.445Z,99551.47
2023-02-11T23:27:13.291Z,99557.38
2023-02-11T23:30:22.054Z,99551.47
2023-02-11T23:33:27.838Z,99560.19
2023-02-11T23:36:35.025Z,99550.50
2023-02-11T23:39:41.137Z,99548.94
2023-02-11T23:42:52.507Z,99551.50
2023-02-11T23:45:58.468Z,99558.41
2023-02-11T23:49:05.412Z,99557.88
2023-02-11T23:52:11.416Z,99555.13
2023-02-11T23:55:18.234Z,99550.06
2023-02-11T23:58:27.029Z,99557.88
